Terminal Aerodrome Forecast
Issued by NWS Detroit/Pontiac, MI

Home | Current Version | Previous Version | Text Only | Print | Product List | Glossary On
Versions: 1 2 3 4 5 6 7 8 9 10 11 12 13 14 15 16 17 18 19 20 21 22 23 24 25 26 27 28 29
000
FTUS43 KDTX 270800 AAA
TAFDTW
TAF AMD
KDTW 270837Z 2709/2812 31005KT P6SM BKN012
     FM270900 01006KT P6SM BKN018
     FM271600 35007KT P6SM SCT040 BKN120
     FM280100 01004KT P6SM SCT045=

USA.gov is the U.S. government's official web portal to all federal, state and local government web resources and services.